Time;durP1;ratioP1;P1;durP2;ratioP2;P2;SDS_P1;SDS_P2;PMS_P1;PMS_P2;Temp;Humidity;BMP_temperature;BMP_pressure;BME280_temperature;BME280_humidity;BME280_pressure;Samples;Min_cycle;Max_cycle;Signal;HPM_P1;HPM_P2
2024/01/31 00:00:20;;;;;;;9.48;1.77;;;8.90;99.90;;;;;;5076466;28;20115;-75
2024/01/31 00:02:46;;;;;;;8.95;1.95;;;8.90;99.90;;;;;;5076150;28;20120;-75
2024/01/31 00:05:13;;;;;;;9.25;1.85;;;8.80;99.90;;;;;;5076130;28;20060;-75
2024/01/31 00:07:39;;;;;;;6.65;1.52;;;8.80;99.90;;;;;;5075105;28;20035;-75
2024/01/31 00:10:05;;;;;;;7.53;1.85;;;8.80;99.90;;;;;;5075006;28;20511;-76
2024/01/31 00:12:31;;;;;;;5.95;1.98;;;8.90;99.90;;;;;;5075357;28;20106;-75
2024/01/31 00:14:57;;;;;;;7.90;1.83;;;8.90;99.90;;;;;;5058241;28;20483;-75
2024/01/31 00:17:22;;;;;;;7.00;1.70;;;8.90;99.90;;;;;;5058171;28;20032;-75
2024/01/31 00:19:48;;;;;;;7.38;1.60;;;8.90;99.90;;;;;;5076285;28;20029;-76
2024/01/31 00:22:14;;;;;;;7.50;1.50;;;8.90;99.90;;;;;;5074728;28;20178;-75
2024/01/31 00:24:39;;;;;;;12.00;1.83;;;8.90;99.90;;;;;;5076075;28;20028;-75
2024/01/31 00:27:05;;;;;;;7.53;1.75;;;8.80;99.90;;;;;;5074283;28;20155;-75
2024/01/31 00:29:31;;;;;;;7.57;1.08;;;8.90;99.90;;;;;;5075942;28;20071;-76
2024/01/31 00:31:56;;;;;;;8.45;2.00;;;8.90;99.90;;;;;;5074568;28;20442;-75
2024/01/31 00:34:22;;;;;;;10.63;2.00;;;8.90;99.90;;;;;;5075668;28;20024;-75
2024/01/31 00:36:48;;;;;;;5.47;1.85;;;8.90;99.90;;;;;;5058325;28;20028;-76
2024/01/31 00:39:14;;;;;;;5.28;1.95;;;8.80;99.90;;;;;;5074607;28;20380;-76
2024/01/31 00:41:39;;;;;;;8.05;1.70;;;8.80;99.90;;;;;;5074686;28;20098;-75
2024/01/31 00:44:05;;;;;;;9.40;1.58;;;8.70;99.90;;;;;;5075510;28;20039;-74
2024/01/31 00:46:30;;;;;;;5.85;1.77;;;8.70;99.90;;;;;;5075120;28;20039;-75
2024/01/31 00:48:56;;;;;;;8.57;1.60;;;8.70;99.90;;;;;;5074774;28;20028;-74
2024/01/31 00:51:22;;;;;;;6.85;1.60;;;8.60;99.90;;;;;;5074492;28;20115;-75
2024/01/31 00:53:47;;;;;;;7.00;1.40;;;8.60;99.90;;;;;;5075553;28;20029;-75
2024/01/31 00:56:13;;;;;;;7.18;1.73;;;8.60;99.90;;;;;;5075529;28;20444;-75
2024/01/31 00:58:39;;;;;;;10.75;1.63;;;8.50;99.90;;;;;;5074913;28;20480;-75
2024/01/31 01:01:04;;;;;;;9.02;1.73;;;8.60;99.90;;;;;;5074906;28;20415;-75
2024/01/31 01:03:30;;;;;;;5.25;1.30;;;8.60;99.90;;;;;;5075643;28;20503;-75
2024/01/31 01:05:56;;;;;;;7.82;1.38;;;8.70;99.90;;;;;;5075242;28;20029;-75
2024/01/31 01:08:21;;;;;;;6.10;1.02;;;8.70;99.90;;;;;;5074159;28;20036;-75
2024/01/31 01:10:47;;;;;;;4.90;1.20;;;8.70;99.90;;;;;;5075104;28;20028;-74
2024/01/31 01:13:13;;;;;;;8.00;1.23;;;8.70;99.90;;;;;;5075034;28;20512;-75
2024/01/31 01:15:38;;;;;;;7.03;0.82;;;8.70;99.90;;;;;;5074086;28;20032;-74
2024/01/31 01:18:04;;;;;;;9.38;1.10;;;8.70;99.90;;;;;;5057393;28;20528;-74
2024/01/31 01:20:30;;;;;;;3.25;0.80;;;8.70;99.90;;;;;;5074821;28;20550;-75
2024/01/31 01:22:56;;;;;;;5.80;1.00;;;8.60;99.90;;;;;;5075079;28;20051;-75
2024/01/31 01:25:22;;;;;;;5.47;1.23;;;8.60;99.90;;;;;;5075312;28;20376;-75
2024/01/31 01:27:50;;;;;;;6.28;0.80;;;8.60;99.90;;;;;;5074315;28;20032;-75
2024/01/31 01:30:20;;;;;;;4.97;0.90;;;8.70;99.90;;;;;;5057231;28;20036;-72
2024/01/31 01:32:46;;;;;;;5.57;1.02;;;8.70;99.90;;;;;;5073536;28;20095;-73
2024/01/31 01:35:13;;;;;;;6.05;0.70;;;8.70;99.90;;;;;;5074882;28;20465;-73
2024/01/31 01:37:39;;;;;;;5.07;0.70;;;8.80;99.90;;;;;;5073692;28;20037;-72
2024/01/31 01:40:06;;;;;;;3.55;0.80;;;8.80;99.90;;;;;;5072987;28;20025;-72
2024/01/31 01:42:36;;;;;;;4.70;0.85;;;8.90;99.90;;;;;;5074149;28;20032;-74
2024/01/31 01:45:01;;;;;;;4.40;0.50;;;8.90;99.90;;;;;;5073228;28;20074;-76
2024/01/31 01:47:27;;;;;;;2.33;0.40;;;8.90;99.90;;;;;;5073347;28;20025;-75
2024/01/31 01:49:53;;;;;;;2.55;0.60;;;9.00;99.90;;;;;;5039791;28;20029;-75
2024/01/31 01:52:19;;;;;;;6.70;0.60;;;9.00;99.90;;;;;;5073443;28;20060;-75
2024/01/31 01:54:45;;;;;;;6.43;0.80;;;9.10;99.90;;;;;;5073209;28;20040;-74
2024/01/31 01:57:12;;;;;;;6.65;0.70;;;9.10;99.90;;;;;;5072247;28;20035;-75
2024/01/31 01:59:41;;;;;;;5.55;0.88;;;9.20;99.90;;;;;;5072815;28;20025;-75
2024/01/31 02:02:07;;;;;;;4.30;0.60;;;9.20;99.90;;;;;;5072734;28;20081;-75
2024/01/31 02:04:33;;;;;;;4.88;0.80;;;9.20;99.90;;;;;;5074374;28;20035;-73
2024/01/31 02:06:58;;;;;;;8.27;0.88;;;9.20;99.90;;;;;;5073962;28;20036;-72
2024/01/31 02:09:26;;;;;;;6.90;0.90;;;9.20;99.90;;;;;;5073746;28;20039;-72
2024/01/31 02:11:51;;;;;;;6.15;0.57;;;9.20;99.90;;;;;;5074052;28;20028;-74
2024/01/31 02:14:18;;;;;;;6.30;0.75;;;9.10;99.90;;;;;;5073179;28;20353;-75
2024/01/31 02:16:44;;;;;;;4.50;0.80;;;9.10;99.90;;;;;;5072760;28;20085;-75
2024/01/31 02:19:10;;;;;;;5.63;1.08;;;9.00;99.90;;;;;;5073935;28;20484;-74
2024/01/31 02:21:41;;;;;;;3.70;0.68;;;9.00;99.90;;;;;;5073889;28;20071;-75
2024/01/31 02:24:06;;;;;;;6.25;0.98;;;9.00;99.90;;;;;;5073692;28;20054;-75
2024/01/31 02:26:32;;;;;;;6.10;1.10;;;8.90;99.90;;;;;;5072072;28;20139;-74
2024/01/31 02:28:57;;;;;;;7.35;0.90;;;8.90;99.90;;;;;;5072420;28;20111;-74
2024/01/31 02:31:23;;;;;;;3.42;0.60;;;8.80;99.90;;;;;;5073364;28;20040;-74
2024/01/31 02:33:49;;;;;;;6.63;1.00;;;8.80;99.90;;;;;;5072143;28;20032;-75
2024/01/31 02:36:14;;;;;;;3.75;0.90;;;8.80;99.90;;;;;;5072649;28;20029;-75
2024/01/31 02:38:40;;;;;;;4.53;1.05;;;8.80;99.90;;;;;;5073487;28;20392;-74
2024/01/31 02:41:07;;;;;;;5.30;1.20;;;8.80;99.90;;;;;;5071945;28;20135;-74
2024/01/31 02:43:33;;;;;;;6.07;1.25;;;8.80;99.90;;;;;;5073329;28;20043;-75
2024/01/31 02:45:58;;;;;;;9.05;1.42;;;8.90;99.90;;;;;;5072189;28;20072;-74
2024/01/31 02:48:24;;;;;;;7.90;1.52;;;8.90;99.90;;;;;;5072028;28;20035;-73
2024/01/31 02:50:49;;;;;;;8.60;1.45;;;8.90;99.90;;;;;;5071912;28;20052;-75
2024/01/31 02:53:15;;;;;;;8.52;1.40;;;8.90;99.90;;;;;;5055630;28;20064;-74
2024/01/31 02:55:41;;;;;;;7.97;1.17;;;8.90;99.90;;;;;;5072950;28;20456;-74
2024/01/31 02:58:07;;;;;;;7.63;1.20;;;8.90;99.90;;;;;;5073284;28;20072;-75
2024/01/31 03:00:33;;;;;;;7.13;1.30;;;8.90;99.90;;;;;;5071906;28;20028;-75
2024/01/31 03:02:58;;;;;;;7.43;1.20;;;8.80;99.90;;;;;;5072565;28;20368;-74
2024/01/31 03:05:24;;;;;;;4.75;0.95;;;8.80;99.90;;;;;;5039053;28;20428;-74
2024/01/31 03:07:49;;;;;;;5.00;0.88;;;8.80;99.90;;;;;;5072735;28;20345;-75
2024/01/31 03:10:15;;;;;;;4.88;0.90;;;8.70;99.90;;;;;;5073326;28;20453;-75
2024/01/31 03:12:41;;;;;;;8.77;1.25;;;8.70;99.90;;;;;;5072018;28;20446;-74
2024/01/31 03:15:07;;;;;;;6.55;1.27;;;8.70;99.90;;;;;;5072669;28;20028;-75
2024/01/31 03:17:35;;;;;;;4.43;0.90;;;8.70;99.90;;;;;;5073244;28;20358;-75
2024/01/31 03:20:03;;;;;;;8.68;1.08;;;8.70;99.90;;;;;;5072900;28;20052;-75
2024/01/31 03:22:29;;;;;;;7.20;1.23;;;8.70;99.90;;;;;;5073023;28;20028;-75
2024/01/31 03:24:55;;;;;;;6.53;1.42;;;8.80;99.90;;;;;;5071944;28;20128;-74
2024/01/31 03:27:20;;;;;;;6.70;0.90;;;8.80;99.90;;;;;;5073668;28;20132;-74
2024/01/31 03:29:46;;;;;;;5.47;0.95;;;8.90;99.90;;;;;;5072743;28;20047;-75
2024/01/31 03:32:12;;;;;;;7.55;0.90;;;8.90;99.90;;;;;;5071706;28;20039;-75
2024/01/31 03:34:37;;;;;;;5.13;0.90;;;8.90;99.90;;;;;;5055598;28;20043;-75
2024/01/31 03:37:05;;;;;;;4.38;0.93;;;8.90;99.90;;;;;;5071498;28;20024;-75
2024/01/31 03:39:31;;;;;;;3.75;0.73;;;8.90;99.90;;;;;;5071482;28;20039;-75
2024/01/31 03:41:57;;;;;;;6.05;1.23;;;8.90;99.90;;;;;;5054345;28;20040;-75
2024/01/31 03:44:23;;;;;;;5.93;0.90;;;8.90;99.90;;;;;;5073183;28;20143;-75
2024/01/31 03:46:48;;;;;;;5.65;1.23;;;8.90;99.90;;;;;;5073292;28;20472;-75
2024/01/31 03:49:14;;;;;;;5.70;0.90;;;8.90;99.90;;;;;;5072664;28;20052;-75
2024/01/31 03:51:40;;;;;;;7.13;0.90;;;8.90;99.90;;;;;;5072773;28;20044;-75
2024/01/31 03:54:05;;;;;;;5.72;1.10;;;8.90;99.90;;;;;;5070845;28;20101;-73
2024/01/31 03:56:31;;;;;;;6.70;0.98;;;8.90;99.90;;;;;;5072338;28;20033;-75
2024/01/31 03:58:57;;;;;;;5.45;1.05;;;8.90;99.90;;;;;;5072606;28;20024;-75
2024/01/31 04:01:23;;;;;;;5.97;0.80;;;8.90;99.90;;;;;;5071050;28;20039;-75
2024/01/31 04:03:48;;;;;;;5.10;0.82;;;8.90;99.90;;;;;;5071543;28;20124;-75
2024/01/31 04:06:14;;;;;;;7.00;1.10;;;9.00;99.90;;;;;;5071436;28;20126;-75
2024/01/31 04:08:40;;;;;;;9.20;1.20;;;9.00;99.90;;;;;;5072512;28;20067;-75
2024/01/31 04:11:06;;;;;;;5.55;0.80;;;9.00;99.90;;;;;;5072660;28;20057;-75
2024/01/31 04:13:31;;;;;;;4.93;0.93;;;9.00;99.90;;;;;;5072869;28;20032;-75
2024/01/31 04:15:58;;;;;;;8.55;1.10;;;9.00;99.90;;;;;;5071108;28;20078;-74
2024/01/31 04:18:24;;;;;;;4.10;1.00;;;9.00;99.90;;;;;;5072387;28;20025;-75
2024/01/31 04:20:49;;;;;;;7.63;0.98;;;9.00;99.90;;;;;;5073363;28;20021;-75
2024/01/31 04:23:15;;;;;;;5.75;1.00;;;9.00;99.90;;;;;;5074262;28;20040;-75
2024/01/31 04:25:41;;;;;;;7.85;1.58;;;9.00;99.90;;;;;;5075671;28;20052;-76
2024/01/31 04:28:07;;;;;;;5.15;1.10;;;9.00;99.90;;;;;;5075978;28;20047;-76
2024/01/31 04:30:32;;;;;;;7.18;1.05;;;9.00;99.90;;;;;;5074573;28;20032;-76
2024/01/31 04:33:02;;;;;;;6.57;1.20;;;9.00;99.90;;;;;;5074580;28;20033;-75
2024/01/31 04:35:28;;;;;;;3.63;0.90;;;9.00;99.90;;;;;;5074528;28;20027;-75
2024/01/31 04:37:54;;;;;;;6.85;1.23;;;9.00;99.90;;;;;;5074441;28;20024;-75
2024/01/31 04:40:19;;;;;;;4.65;1.10;;;9.00;99.90;;;;;;5074507;28;20477;-75
2024/01/31 04:42:47;;;;;;;8.20;1.02;;;9.00;99.90;;;;;;5075633;28;20041;-75
2024/01/31 04:45:13;;;;;;;5.05;1.17;;;9.00;99.90;;;;;;5074446;28;20063;-75
2024/01/31 04:47:41;;;;;;;5.80;0.90;;;9.00;99.90;;;;;;5074533;28;20034;-76
2024/01/31 04:50:07;;;;;;;3.83;1.20;;;9.00;99.90;;;;;;5074259;28;20132;-76
2024/01/31 04:52:33;;;;;;;6.32;1.00;;;9.00;99.90;;;;;;5074154;28;20115;-76
2024/01/31 04:54:59;;;;;;;4.25;0.70;;;9.10;99.90;;;;;;5076118;28;20133;-75
2024/01/31 04:57:25;;;;;;;7.43;1.10;;;9.10;99.90;;;;;;5057715;28;20060;-76
2024/01/31 04:59:50;;;;;;;5.40;0.82;;;9.10;99.90;;;;;;5074018;28;20064;-75
2024/01/31 05:02:16;;;;;;;7.43;1.05;;;9.10;99.90;;;;;;5074263;28;20044;-75
2024/01/31 05:04:42;;;;;;;5.60;0.90;;;9.10;99.90;;;;;;5057225;28;20028;-75
2024/01/31 05:07:08;;;;;;;5.65;0.70;;;9.10;99.90;;;;;;5073687;28;20111;-76
2024/01/31 05:09:33;;;;;;;3.83;0.70;;;9.10;99.90;;;;;;5075167;28;20166;-76
2024/01/31 05:11:59;;;;;;;4.68;0.77;;;9.10;99.90;;;;;;5073880;28;20039;-75
2024/01/31 05:14:25;;;;;;;4.63;0.90;;;9.10;99.90;;;;;;5074802;28;20429;-76
2024/01/31 05:16:50;;;;;;;3.85;0.82;;;9.10;99.90;;;;;;5074986;28;20028;-75
2024/01/31 05:19:16;;;;;;;10.10;1.25;;;9.10;99.90;;;;;;5056819;28;20082;-74
2024/01/31 05:21:45;;;;;;;9.52;1.48;;;9.00;99.90;;;;;;5074519;28;20029;-75
2024/01/31 05:24:11;;;;;;;3.22;0.88;;;9.00;99.90;;;;;;5073514;28;20025;-75
2024/01/31 05:26:37;;;;;;;3.65;1.05;;;9.00;99.90;;;;;;5056682;28;20058;-75
2024/01/31 05:29:02;;;;;;;4.57;1.05;;;9.00;99.90;;;;;;5073957;28;20411;-75
2024/01/31 05:31:28;;;;;;;4.72;0.82;;;9.00;99.90;;;;;;5073379;28;20393;-75
2024/01/31 05:33:54;;;;;;;3.17;0.82;;;9.00;99.90;;;;;;5073318;28;20119;-75
2024/01/31 05:36:19;;;;;;;5.55;1.25;;;9.00;99.90;;;;;;5074947;28;20032;-75
2024/01/31 05:38:45;;;;;;;6.32;1.13;;;9.00;99.90;;;;;;5056630;28;20028;-75
2024/01/31 05:41:12;;;;;;;6.20;0.75;;;9.00;99.90;;;;;;5073012;28;20024;-76
2024/01/31 05:43:38;;;;;;;5.38;0.80;;;9.00;99.90;;;;;;5076240;28;20032;-81
2024/01/31 05:46:04;;;;;;;5.97;0.80;;;9.00;99.90;;;;;;5075214;28;20115;-81
2024/01/31 05:48:29;;;;;;;5.35;1.00;;;9.00;99.90;;;;;;5075158;28;20147;-82
2024/01/31 05:50:55;;;;;;;7.95;1.83;;;9.00;99.90;;;;;;5056738;28;20044;-80
2024/01/31 05:53:21;;;;;;;4.63;0.70;;;9.00;99.90;;;;;;5072981;28;20029;-81
2024/01/31 05:55:46;;;;;;;3.20;1.05;;;9.00;99.90;;;;;;5056973;28;20456;-81
2024/01/31 05:58:12;;;;;;;3.60;1.25;;;9.00;99.90;;;;;;5072992;28;20350;-80
2024/01/31 06:00:38;;;;;;;5.80;1.30;;;9.00;99.90;;;;;;5072991;28;20342;-80
2024/01/31 06:03:04;;;;;;;4.05;1.05;;;9.00;99.90;;;;;;5073910;28;20033;-80
2024/01/31 06:05:29;;;;;;;4.20;1.20;;;9.00;99.90;;;;;;5055996;28;20029;-79
2024/01/31 06:07:55;;;;;;;5.57;1.63;;;9.00;99.90;;;;;;5055612;28;20039;-79
2024/01/31 06:10:21;;;;;;;8.88;2.15;;;9.00;99.90;;;;;;5073509;28;20039;-79
2024/01/31 06:12:46;;;;;;;3.85;0.98;;;9.00;99.90;;;;;;5071951;28;20033;-78
2024/01/31 06:15:13;;;;;;;6.28;1.15;;;9.00;99.90;;;;;;5072527;28;20029;-80
2024/01/31 06:17:40;;;;;;;6.75;1.20;;;9.00;99.90;;;;;;5039050;28;20042;-80
2024/01/31 06:20:08;;;;;;;5.35;1.45;;;8.90;99.90;;;;;;5055574;28;20086;-80
2024/01/31 06:22:33;;;;;;;5.13;1.30;;;8.80;99.90;;;;;;5039017;28;20036;-75
2024/01/31 06:24:59;;;;;;;4.85;1.38;;;8.80;99.90;;;;;;5073230;28;20074;-75
2024/01/31 06:27:25;;;;;;;7.22;1.10;;;8.90;99.90;;;;;;5073256;28;20098;-77
2024/01/31 06:29:50;;;;;;;4.05;0.88;;;8.80;99.90;;;;;;5056131;28;20361;-76
2024/01/31 06:32:21;;;;;;;7.43;0.93;;;8.90;99.90;;;;;;5073151;28;20040;-75
2024/01/31 06:34:47;;;;;;;4.45;1.13;;;8.90;99.90;;;;;;5073291;28;20115;-75
2024/01/31 06:37:13;;;;;;;4.80;0.93;;;8.90;99.90;;;;;;5072776;28;20029;-75
2024/01/31 06:39:38;;;;;;;5.75;1.35;;;9.00;99.90;;;;;;5073607;28;20365;-75
2024/01/31 06:42:06;;;;;;;5.45;1.00;;;9.00;99.90;;;;;;5071919;28;20060;-76
2024/01/31 06:44:33;;;;;;;4.03;1.02;;;9.10;99.90;;;;;;5073086;28;20071;-77
2024/01/31 06:46:59;;;;;;;3.72;0.63;;;9.20;99.90;;;;;;5072184;28;20028;-79
2024/01/31 06:49:24;;;;;;;4.53;0.98;;;9.20;99.90;;;;;;5073505;28;20047;-80
2024/01/31 06:51:51;;;;;;;6.97;0.77;;;9.30;99.90;;;;;;5054740;28;20051;-79
2024/01/31 06:54:17;;;;;;;4.57;0.82;;;9.40;99.90;;;;;;5054691;28;20060;-79
2024/01/31 06:56:43;;;;;;;4.80;0.90;;;9.40;99.90;;;;;;5072357;28;20101;-76
2024/01/31 06:59:09;;;;;;;3.75;0.65;;;9.40;99.90;;;;;;5072774;28;20047;-79
2024/01/31 07:01:34;;;;;;;5.03;1.30;;;9.40;99.90;;;;;;5056991;28;20128;-79
2024/01/31 07:04:00;;;;;;;3.33;1.13;;;9.40;99.90;;;;;;5071608;28;20388;-76
2024/01/31 07:06:26;;;;;;;5.25;1.10;;;9.40;99.90;;;;;;5055093;28;20035;-77
2024/01/31 07:08:52;;;;;;;2.70;1.00;;;9.40;99.90;;;;;;5071579;28;20033;-78
2024/01/31 07:11:17;;;;;;;5.30;0.93;;;9.40;99.90;;;;;;5055407;28;20028;-78
2024/01/31 07:13:43;;;;;;;5.18;1.73;;;9.40;99.90;;;;;;5071551;28;20507;-79
2024/01/31 07:16:10;;;;;;;4.68;2.03;;;9.40;99.90;;;;;;5072934;28;20048;-79
2024/01/31 07:18:43;;;;;;;8.00;1.50;;;9.30;99.90;;;;;;5055195;28;20107;-79
2024/01/31 07:21:09;;;;;;;5.38;1.10;;;9.20;99.90;;;;;;5071384;28;20025;-80
2024/01/31 07:23:36;;;;;;;3.55;1.40;;;9.20;99.90;;;;;;5054624;28;20036;-79
2024/01/31 07:26:02;;;;;;;4.53;1.65;;;9.10;99.90;;;;;;5072420;28;20182;-77
2024/01/31 07:28:28;;;;;;;4.38;1.40;;;9.10;99.90;;;;;;5071489;28;20066;-78
2024/01/31 07:30:53;;;;;;;5.72;1.70;;;9.10;99.90;;;;;;5071516;28;20074;-75
2024/01/31 07:33:19;;;;;;;6.32;1.50;;;9.00;99.90;;;;;;5072981;28;20032;-79
2024/01/31 07:35:45;;;;;;;5.75;1.77;;;9.00;99.90;;;;;;5071806;28;20017;-76
2024/01/31 07:38:11;;;;;;;3.50;1.55;;;8.90;99.90;;;;;;5038063;28;20396;-76
2024/01/31 07:40:38;;;;;;;5.93;1.75;;;8.90;99.90;;;;;;5071204;28;20029;-78
2024/01/31 07:43:04;;;;;;;8.52;1.98;;;8.90;99.90;;;;;;5072577;28;20040;-78
2024/01/31 07:45:30;;;;;;;6.53;2.17;;;8.90;99.90;;;;;;5071313;28;20097;-77
2024/01/31 07:47:56;;;;;;;4.07;1.60;;;8.90;99.90;;;;;;5054587;28;20028;-77
2024/01/31 07:50:23;;;;;;;8.65;2.20;;;8.90;99.90;;;;;;5071262;28;20033;-77
2024/01/31 07:52:49;;;;;;;5.40;1.63;;;9.00;99.90;;;;;;5071375;28;20476;-77
2024/01/31 07:55:14;;;;;;;5.13;1.52;;;9.10;99.90;;;;;;5072754;28;20520;-77
2024/01/31 07:57:40;;;;;;;5.18;1.58;;;9.10;99.90;;;;;;5074946;28;20491;-77
2024/01/31 08:00:07;;;;;;;4.60;2.03;;;9.10;99.90;;;;;;5058124;28;20040;-78
2024/01/31 08:02:33;;;;;;;3.78;1.65;;;9.10;99.90;;;;;;5041313;28;20085;-78
2024/01/31 08:04:59;;;;;;;3.85;2.03;;;9.10;99.90;;;;;;5076086;28;20073;-77
2024/01/31 08:07:25;;;;;;;4.78;1.65;;;9.20;99.90;;;;;;5074719;28;20062;-78
2024/01/31 08:09:51;;;;;;;5.30;1.80;;;9.20;99.90;;;;;;5074583;28;20465;-77
2024/01/31 08:12:17;;;;;;;5.47;1.85;;;9.20;99.90;;;;;;5074743;28;20032;-77
2024/01/31 08:14:43;;;;;;;4.45;1.95;;;9.20;99.90;;;;;;5074331;28;20029;-78
2024/01/31 08:17:10;;;;;;;4.00;1.88;;;9.30;99.90;;;;;;5074972;28;20523;-77
2024/01/31 08:19:36;;;;;;;5.05;1.67;;;9.30;99.90;;;;;;5074510;28;20054;-79
2024/01/31 08:22:02;;;;;;;4.55;1.30;;;9.30;99.90;;;;;;5074827;28;20118;-78
2024/01/31 08:24:28;;;;;;;3.55;1.40;;;9.30;99.90;;;;;;5074983;28;20033;-79
2024/01/31 08:26:54;;;;;;;3.13;1.55;;;9.40;99.90;;;;;;5057864;28;20125;-77
2024/01/31 08:29:20;;;;;;;7.72;2.60;;;9.50;99.90;;;;;;5074281;28;20048;-77
2024/01/31 08:31:46;;;;;;;15.10;3.47;;;9.50;99.90;;;;;;5041666;28;20377;-76
2024/01/31 08:34:12;;;;;;;49.55;8.57;;;9.50;99.90;;;;;;5075580;28;20032;-76
2024/01/31 08:36:38;;;;;;;26.00;6.07;;;9.50;99.90;;;;;;5074615;28;20032;-77
2024/01/31 08:39:04;;;;;;;35.80;6.75;;;9.60;99.90;;;;;;5075754;28;20404;-79
2024/01/31 08:41:29;;;;;;;9.50;3.75;;;9.60;99.90;;;;;;5074647;28;20448;-78
2024/01/31 08:43:55;;;;;;;23.48;5.25;;;9.70;99.90;;;;;;5074363;28;20041;-76
2024/01/31 08:46:21;;;;;;;8.77;3.10;;;9.70;99.90;;;;;;5075267;28;20095;-76
2024/01/31 08:48:46;;;;;;;11.80;3.25;;;9.70;99.90;;;;;;5057153;28;20127;-75
2024/01/31 08:51:14;;;;;;;11.77;3.13;;;9.70;99.90;;;;;;5075107;28;20056;-76
2024/01/31 08:53:42;;;;;;;31.50;6.22;;;9.70;99.90;;;;;;5073702;28;20032;-75
2024/01/31 08:56:09;;;;;;;27.48;5.22;;;9.80;99.90;;;;;;5073588;28;20107;-75
2024/01/31 08:58:34;;;;;;;11.68;3.97;;;9.80;99.90;;;;;;5075554;28;20067;-75
2024/01/31 09:01:00;;;;;;;27.70;6.20;;;9.90;99.90;;;;;;5073852;28;20052;-75
2024/01/31 09:03:26;;;;;;;24.77;5.70;;;9.90;99.90;;;;;;5073795;28;20047;-75
2024/01/31 09:05:53;;;;;;;20.08;5.45;;;10.00;99.90;;;;;;5074798;28;20112;-75
2024/01/31 09:08:20;;;;;;;23.63;6.00;;;10.00;99.90;;;;;;5074415;28;20029;-75
2024/01/31 09:10:45;;;;;;;11.57;3.42;;;10.10;99.90;;;;;;5074912;28;20064;-76
2024/01/31 09:13:11;;;;;;;8.55;3.38;;;10.10;99.90;;;;;;5074795;28;20114;-76
2024/01/31 09:15:37;;;;;;;13.18;3.65;;;10.10;99.90;;;;;;5056991;28;20024;-76
2024/01/31 09:18:03;;;;;;;9.32;3.88;;;10.10;99.90;;;;;;5074634;28;20028;-77
2024/01/31 09:20:29;;;;;;;11.10;4.10;;;10.20;99.90;;;;;;5074889;28;20028;-76
2024/01/31 09:22:55;;;;;;;10.13;3.42;;;10.20;99.90;;;;;;5074485;28;20139;-77
2024/01/31 09:25:21;;;;;;;11.63;3.55;;;10.10;99.90;;;;;;5056660;28;20461;-75
2024/01/31 09:27:46;;;;;;;12.68;3.40;;;10.10;99.90;;;;;;5056557;28;20033;-76
2024/01/31 09:30:12;;;;;;;7.47;3.75;;;10.20;99.90;;;;;;5073330;28;20027;-77
2024/01/31 09:32:39;;;;;;;9.50;3.33;;;10.10;99.90;;;;;;5074830;28;20116;-76
2024/01/31 09:35:05;;;;;;;5.95;3.25;;;10.20;99.90;;;;;;5074852;28;20020;-76
2024/01/31 09:37:32;;;;;;;22.42;4.38;;;10.20;99.90;;;;;;5073305;28;20040;-77
2024/01/31 09:39:59;;;;;;;11.18;4.07;;;10.20;99.90;;;;;;5056814;28;20032;-76
2024/01/31 09:42:25;;;;;;;6.70;3.30;;;10.20;99.90;;;;;;5040634;28;20082;-77
2024/01/31 09:44:55;;;;;;;7.03;3.35;;;10.20;99.90;;;;;;5056990;28;20025;-77
2024/01/31 09:47:30;;;;;;;6.45;3.30;;;10.20;99.90;;;;;;5073170;28;20032;-78
2024/01/31 09:49:56;;;;;;;10.88;4.53;;;10.20;99.90;;;;;;5058035;28;20158;-78
2024/01/31 09:52:29;;;;;;;8.43;4.70;;;10.10;99.90;;;;;;5055817;28;20037;-78
2024/01/31 09:54:58;;;;;;;13.00;4.18;;;10.20;99.90;;;;;;5074051;28;20430;-77
2024/01/31 09:57:24;;;;;;;12.73;5.90;;;10.20;99.90;;;;;;5055874;28;20516;-78
2024/01/31 09:59:51;;;;;;;7.82;4.07;;;10.10;99.90;;;;;;5072741;28;20186;-78
2024/01/31 10:02:17;;;;;;;8.88;4.80;;;10.00;99.90;;;;;;5072283;28;20115;-78
2024/01/31 10:04:47;;;;;;;12.48;5.20;;;10.00;99.90;;;;;;5073799;28;20029;-79
2024/01/31 10:07:25;;;;;;;9.25;4.63;;;10.00;99.90;;;;;;5056309;28;20032;-76
2024/01/31 10:09:55;;;;;;;12.43;4.82;;;9.90;99.90;;;;;;5073769;28;20036;-78
2024/01/31 10:12:22;;;;;;;9.00;4.47;;;9.90;99.90;;;;;;5073841;28;20043;-76
2024/01/31 10:14:48;;;;;;;16.35;5.47;;;10.00;99.90;;;;;;5073609;28;20029;-77
2024/01/31 10:17:20;;;;;;;11.73;5.78;;;9.90;99.90;;;;;;5072260;28;20521;-77
2024/01/31 10:19:46;;;;;;;14.23;6.45;;;9.90;99.90;;;;;;5072759;28;20059;-78
2024/01/31 10:22:11;;;;;;;11.18;6.88;;;9.80;99.90;;;;;;5072813;28;20032;-78
2024/01/31 10:24:38;;;;;;;14.63;8.60;;;9.80;99.90;;;;;;5072350;28;20025;-77
2024/01/31 10:27:07;;;;;;;15.23;7.15;;;9.70;99.90;;;;;;5072028;28;20051;-77
2024/01/31 10:29:33;;;;;;;14.32;7.65;;;9.80;99.90;;;;;;5073105;28;20016;-78
2024/01/31 10:32:00;;;;;;;14.38;8.60;;;9.80;99.90;;;;;;5055677;28;20029;-77
2024/01/31 10:34:27;;;;;;;22.02;10.93;;;9.80;99.90;;;;;;5073341;28;20028;-77
2024/01/31 10:36:56;;;;;;;19.83;9.57;;;9.70;99.90;;;;;;5073521;28;20037;-79
2024/01/31 10:39:22;;;;;;;13.90;9.18;;;9.70;99.90;;;;;;5072128;28;20024;-79
2024/01/31 10:41:49;;;;;;;21.75;11.15;;;9.70;99.90;;;;;;5073028;28;20029;-79
2024/01/31 10:44:15;;;;;;;19.67;9.88;;;9.80;99.90;;;;;;5072126;28;20028;-79
2024/01/31 10:46:43;;;;;;;19.25;10.00;;;9.70;99.90;;;;;;5072323;28;20512;-78
2024/01/31 10:49:11;;;;;;;20.15;12.05;;;9.70;99.90;;;;;;5073091;28;20453;-77
2024/01/31 10:51:38;;;;;;;27.58;13.88;;;9.70;99.90;;;;;;5071935;28;20028;-79
2024/01/31 10:54:06;;;;;;;28.85;14.75;;;9.70;99.90;;;;;;5073417;28;20033;-81
2024/01/31 10:56:33;;;;;;;24.08;12.48;;;9.60;99.90;;;;;;5073150;28;20458;-79
2024/01/31 10:58:59;;;;;;;26.92;14.65;;;9.60;99.90;;;;;;5074234;28;20070;-80
2024/01/31 11:01:31;;;;;;;24.48;14.32;;;9.60;99.90;;;;;;5073172;28;20029;-79
2024/01/31 11:03:57;;;;;;;32.25;18.13;;;9.50;99.90;;;;;;5078529;28;20058;-80
2024/01/31 11:06:24;;;;;;;27.65;17.45;;;9.40;99.90;;;;;;5074972;28;20032;-79
2024/01/31 11:08:51;;;;;;;28.80;17.77;;;9.40;99.90;;;;;;5073045;28;20033;-80
2024/01/31 11:11:20;;;;;;;36.97;19.90;;;9.40;99.90;;;;;;5073181;28;20028;-78
2024/01/31 11:13:46;;;;;;;29.30;18.67;;;9.40;99.90;;;;;;5071766;28;20032;-79
2024/01/31 11:16:22;;;;;;;32.40;19.67;;;9.30;99.90;;;;;;5071454;28;20032;-80
2024/01/31 11:18:51;;;;;;;34.25;19.75;;;9.30;99.90;;;;;;5072951;28;20033;-81
2024/01/31 11:21:18;;;;;;;35.00;20.30;;;9.30;99.90;;;;;;5071272;28;20028;-81
2024/01/31 11:23:44;;;;;;;37.97;20.42;;;9.40;99.90;;;;;;5054693;28;20063;-78
2024/01/31 11:26:10;;;;;;;42.50;23.58;;;9.30;99.90;;;;;;5054449;28;20567;-79
2024/01/31 11:28:43;;;;;;;44.00;23.08;;;9.30;99.90;;;;;;5074350;28;20067;-79
2024/01/31 11:31:08;;;;;;;42.72;21.95;;;9.20;99.90;;;;;;5080578;28;20309;-80
2024/01/31 11:33:34;;;;;;;43.65;23.42;;;9.20;99.90;;;;;;5050459;28;20047;-79
2024/01/31 11:36:00;;;;;;;37.38;21.40;;;9.10;99.90;;;;;;5087110;28;20033;-79
2024/01/31 11:38:25;;;;;;;37.83;21.73;;;9.10;99.90;;;;;;5065595;28;20117;-80
2024/01/31 11:40:52;;;;;;;40.15;22.60;;;9.10;99.90;;;;;;5062768;28;20033;-79
2024/01/31 11:43:18;;;;;;;38.28;21.85;;;9.10;99.90;;;;;;5077608;28;20033;-79
2024/01/31 11:45:44;;;;;;;36.78;21.52;;;9.10;99.90;;;;;;5080660;28;20047;-79
2024/01/31 11:48:13;;;;;;;39.83;22.38;;;9.20;99.90;;;;;;5079967;28;20051;-79
2024/01/31 11:50:39;;;;;;;37.55;20.95;;;9.20;99.90;;;;;;5081115;28;20457;-79
2024/01/31 11:53:05;;;;;;;41.70;21.10;;;9.20;99.90;;;;;;5082399;28;20038;-79
2024/01/31 11:55:33;;;;;;;37.10;21.00;;;9.20;99.90;;;;;;5066420;28;20028;-79
2024/01/31 11:57:59;;;;;;;39.97;21.92;;;9.20;99.90;;;;;;5086776;28;20189;-80
2024/01/31 12:00:25;;;;;;;36.13;19.92;;;9.20;99.90;;;;;;5089647;28;20035;-80
2024/01/31 12:02:53;;;;;;;37.95;21.45;;;9.20;99.90;;;;;;5086527;28;20059;-80
2024/01/31 12:05:18;;;;;;;33.72;19.33;;;9.20;99.90;;;;;;5086839;28;20048;-80
2024/01/31 12:07:55;;;;;;;37.55;21.25;;;9.30;99.90;;;;;;5081368;28;20488;-78
2024/01/31 12:10:21;;;;;;;36.35;19.90;;;9.20;99.90;;;;;;5081039;28;20036;-80
2024/01/31 12:12:46;;;;;;;33.70;19.17;;;9.20;99.90;;;;;;5078600;28;20405;-79
2024/01/31 12:15:12;;;;;;;35.88;19.75;;;9.20;99.90;;;;;;5075284;28;20438;-80
2024/01/31 12:17:38;;;;;;;31.92;18.17;;;9.20;99.90;;;;;;5074972;28;20035;-80
2024/01/31 12:20:08;;;;;;;34.60;18.35;;;9.20;99.90;;;;;;5075418;28;20380;-80
2024/01/31 12:22:34;;;;;;;29.48;16.45;;;9.20;99.90;;;;;;5075557;28;20469;-80
2024/01/31 12:25:03;;;;;;;24.85;16.60;;;9.20;99.90;;;;;;5080473;28;20029;-80
2024/01/31 12:27:29;;;;;;;25.98;15.85;;;9.20;99.90;;;;;;5082035;28;20137;-81
2024/01/31 12:29:55;;;;;;;26.30;15.05;;;9.20;99.90;;;;;;5076732;28;20025;-81
2024/01/31 12:32:20;;;;;;;24.63;14.38;;;9.20;99.90;;;;;;5075383;28;20096;-81
2024/01/31 12:34:46;;;;;;;23.77;13.98;;;9.10;99.90;;;;;;5058504;28;20090;-81
2024/01/31 12:37:12;;;;;;;19.23;12.73;;;9.10;99.90;;;;;;5058460;28;20079;-79
2024/01/31 12:39:37;;;;;;;17.98;12.75;;;9.10;99.90;;;;;;5058481;28;20079;-80
2024/01/31 12:42:04;;;;;;;17.48;11.82;;;9.10;99.90;;;;;;5074454;28;20029;-80
2024/01/31 12:44:30;;;;;;;18.30;12.30;;;9.10;99.90;;;;;;5077103;28;20108;-80